createdAt,value
2022-12-25T00:02:14.372Z,46.40
2022-12-25T00:07:17.553Z,46.40
2022-12-25T00:12:22.476Z,38.70
2022-12-25T00:17:25.633Z,40.20
2022-12-25T00:22:30.083Z,38.10
2022-12-25T00:27:38.020Z,36.50
2022-12-25T00:32:42.311Z,40.20
2022-12-25T00:37:45.550Z,38.40
2022-12-25T00:42:49.892Z,36.10
2022-12-25T00:47:53.684Z,42.80
2022-12-25T00:52:56.844Z,43.70
2022-12-25T00:58:00.016Z,47.90
2022-12-25T01:03:03.296Z,44.60
2022-12-25T01:08:07.127Z,57.70
2022-12-25T01:13:10.343Z,60.30
2022-12-25T01:18:13.635Z,57.00
2022-12-25T01:23:17.312Z,48.30
2022-12-25T01:28:20.446Z,40.40
2022-12-25T01:33:23.577Z,39.80
2022-12-25T01:38:26.824Z,38.90
2022-12-25T01:43:32.660Z,34.40
2022-12-25T01:48:38.559Z,33.20
2022-12-25T01:53:41.805Z,33.90
2022-12-25T01:58:45.032Z,35.10
2022-12-25T02:03:48.373Z,33.20
2022-12-25T02:08:51.818Z,31.50
2022-12-25T02:13:55.124Z,29.90
2022-12-25T02:19:20.052Z,33.90
2022-12-25T02:24:55.328Z,34.10
2022-12-25T02:30:04.876Z,34.10
2022-12-25T02:35:15.656Z,32.00
2022-12-25T02:40:26.168Z,32.00
2022-12-25T02:45:57.002Z,35.60
2022-12-25T02:51:33.737Z,34.40
2022-12-25T02:56:58.703Z,33.20
2022-12-25T03:02:22.584Z,33.80
2022-12-25T03:07:27.692Z,37.50
2022-12-25T03:12:53.912Z,43.80
2022-12-25T03:18:03.330Z,39.30
2022-12-25T03:23:26.667Z,38.80
2022-12-25T03:28:29.781Z,38.10
2022-12-25T03:34:06.644Z,42.20
2022-12-25T03:40:00.021Z,47.00
2022-12-25T03:45:33.519Z,44.10
2022-12-25T03:56:20.785Z,40.70
2022-12-25T04:01:42.777Z,40.70
2022-12-25T04:07:17.026Z,43.30
2022-12-25T04:12:38.987Z,44.40
2022-12-25T04:18:00.824Z,40.30
2022-12-25T04:23:22.727Z,39.10
2022-12-25T04:28:44.474Z,39.40
2022-12-25T04:34:06.178Z,44.40
2022-12-25T04:39:10.290Z,39.80
2022-12-25T04:44:13.640Z,44.70
2022-12-25T04:49:16.713Z,43.30
2022-12-25T04:54:19.875Z,38.10
2022-12-25T04:59:23.151Z,40.30
2022-12-25T05:04:26.296Z,37.70
2022-12-25T05:09:29.584Z,40.50
2022-12-25T05:14:32.722Z,38.30
2022-12-25T05:19:35.801Z,42.80
2022-12-25T05:24:39.024Z,39.50
2022-12-25T05:29:42.219Z,43.50
2022-12-25T05:34:51.025Z,53.40
2022-12-25T05:39:54.160Z,54.70
2022-12-25T05:44:57.357Z,41.40
2022-12-25T05:50:00.520Z,41.90
2022-12-25T05:55:03.985Z,42.40
2022-12-25T06:00:07.885Z,67.30
2022-12-25T06:05:15.731Z,52.10
2022-12-25T06:10:18.970Z,44.10
2022-12-25T06:15:28.000Z,42.00
2022-12-25T06:20:46.157Z,46.90
2022-12-25T06:25:49.281Z,48.20
2022-12-25T06:30:52.429Z,56.80
2022-12-25T06:35:55.554Z,55.50
2022-12-25T06:41:07.470Z,59.60
2022-12-25T06:46:13.545Z,62.60
2022-12-25T06:51:22.332Z,61.80
2022-12-25T06:56:28.454Z,71.20
2022-12-25T07:01:45.879Z,72.40
2022-12-25T07:07:11.015Z,70.10
2022-12-25T07:12:26.342Z,70.70
2022-12-25T07:17:41.701Z,70.40
2022-12-25T07:29:00.941Z,66.70
2022-12-25T07:34:43.835Z,67.00
2022-12-25T07:40:01.779Z,62.30
2022-12-25T07:45:13.683Z,56.00
2022-12-25T07:50:17.432Z,61.50
2022-12-25T07:55:20.570Z,55.60
2022-12-25T08:00:29.672Z,58.80
2022-12-25T08:05:45.953Z,61.00
2022-12-25T08:10:49.201Z,56.30
2022-12-25T08:16:01.108Z,55.00
2022-12-25T08:21:10.377Z,56.60
2022-12-25T08:26:22.273Z,58.20
2022-12-25T08:31:46.718Z,55.30
2022-12-25T08:37:01.704Z,54.30
2022-12-25T08:42:32.346Z,58.30
2022-12-25T08:48:28.828Z,57.40
2022-12-25T09:00:07.326Z,49.40
2022-12-25T09:05:22.253Z,52.30
2022-12-25T09:10:49.865Z,52.50
2022-12-25T09:16:08.066Z,54.50
2022-12-25T09:21:23.428Z,48.70
2022-12-25T09:26:38.906Z,49.90
2022-12-25T09:32:02.913Z,50.90
2022-12-25T09:37:24.190Z,47.00
2022-12-25T09:42:48.718Z,51.70
2022-12-25T09:48:16.362Z,52.60
2022-12-25T10:12:17.027Z,48.30
2022-12-25T10:18:32.002Z,48.00
2022-12-25T10:24:06.033Z,42.20
2022-12-25T10:29:19.714Z,45.50
2022-12-25T10:34:59.371Z,44.00
2022-12-25T10:40:02.581Z,41.90
2022-12-25T10:45:09.306Z,34.90
2022-12-25T10:50:20.851Z,35.80
2022-12-25T10:55:28.689Z,35.50
2022-12-25T11:00:33.472Z,35.30
2022-12-25T11:05:37.037Z,36.80
2022-12-25T11:10:44.614Z,41.10
2022-12-25T11:15:49.467Z,38.40
2022-12-25T11:21:13.967Z,39.00
2022-12-25T11:26:18.674Z,39.70
2022-12-25T11:31:38.001Z,48.40
2022-12-25T11:36:52.466Z,41.60
2022-12-25T11:42:22.262Z,40.40
2022-12-25T11:47:33.895Z,47.80
2022-12-25T11:52:39.041Z,46.90
2022-12-25T11:57:45.587Z,51.70
2022-12-25T12:03:07.094Z,54.70
2022-12-25T12:08:11.577Z,52.80
2022-12-25T12:13:23.675Z,50.90
2022-12-25T12:24:20.600Z,56.30
2022-12-25T12:29:28.306Z,50.30
2022-12-25T12:34:44.058Z,54.00
2022-12-25T12:39:54.160Z,53.40
2022-12-25T12:45:08.475Z,64.30
2022-12-25T12:50:27.340Z,60.80
2022-12-25T12:55:34.377Z,58.50
2022-12-25T13:00:46.717Z,64.70
2022-12-25T13:06:10.341Z,56.20
2022-12-25T13:11:24.968Z,56.80
2022-12-25T13:16:34.123Z,63.80
2022-12-25T13:21:37.385Z,74.50
2022-12-25T13:26:40.780Z,66.80
2022-12-25T13:31:44.254Z,77.00
2022-12-25T13:36:48.915Z,74.40
2022-12-25T13:42:06.053Z,77.00
2022-12-25T13:47:21.943Z,76.40
2022-12-25T13:52:35.876Z,73.30
2022-12-25T13:58:01.329Z,73.20
2022-12-25T14:03:18.690Z,84.70
2022-12-25T14:08:25.954Z,77.00
2022-12-25T14:13:30.904Z,83.70
2022-12-25T14:18:34.734Z,87.20
2022-12-25T14:23:47.736Z,73.00
2022-12-25T14:29:17.673Z,72.60
2022-12-25T14:34:24.665Z,74.60
2022-12-25T14:39:28.633Z,77.50
2022-12-25T14:44:39.916Z,81.60
2022-12-25T14:49:43.452Z,74.50
2022-12-25T14:54:50.269Z,79.90
2022-12-25T14:59:59.219Z,76.70
2022-12-25T15:05:02.594Z,75.80
2022-12-25T15:10:57.616Z,75.50
2022-12-25T15:15:35.332Z,81.40
2022-12-25T15:20:38.790Z,89.30
2022-12-25T15:25:42.758Z,85.10
2022-12-25T15:30:46.573Z,99.20
2022-12-25T15:35:50.001Z,96.20
2022-12-25T15:40:53.305Z,93.20
2022-12-25T15:45:56.522Z,99.80
2022-12-25T15:50:59.779Z,105.30
2022-12-25T15:56:03.008Z,111.80
2022-12-25T16:01:06.248Z,110.00
2022-12-25T16:06:14.164Z,107.60
2022-12-25T16:11:23.469Z,109.10
2022-12-25T16:16:26.827Z,117.80
2022-12-25T16:21:46.424Z,103.80
2022-12-25T16:26:49.782Z,101.50
2022-12-25T16:31:52.950Z,105.60
2022-12-25T16:36:56.730Z,118.60
2022-12-25T16:41:59.982Z,106.30
2022-12-25T16:47:03.405Z,97.30
2022-12-25T16:52:06.561Z,104.80
2022-12-25T16:57:09.805Z,111.60
2022-12-25T17:02:18.757Z,104.40
2022-12-25T17:07:22.183Z,99.80
2022-12-25T17:12:25.493Z,99.70
2022-12-25T17:17:29.086Z,97.40
2022-12-25T17:22:32.317Z,104.60
2022-12-25T17:27:35.572Z,100.40
2022-12-25T17:32:38.699Z,115.10
2022-12-25T17:37:42.340Z,100.90
2022-12-25T17:42:45.514Z,96.40
2022-12-25T17:47:48.895Z,92.40
2022-12-25T17:52:53.102Z,92.90
2022-12-25T17:57:56.272Z,90.10
2022-12-25T18:03:05.731Z,93.10
2022-12-25T18:08:12.979Z,86.80
2022-12-25T18:13:16.192Z,78.40
2022-12-25T18:18:19.384Z,72.50
2022-12-25T18:23:23.349Z,69.70
2022-12-25T18:28:26.483Z,89.70
2022-12-25T18:33:29.650Z,83.70
2022-12-25T18:38:33.239Z,66.40
2022-12-25T18:43:52.988Z,66.40
2022-12-25T18:48:58.404Z,58.10
2022-12-25T18:54:01.778Z,58.40
2022-12-25T18:59:05.113Z,70.40
2022-12-25T19:04:12.818Z,58.30
2022-12-25T19:09:16.005Z,55.80
2022-12-25T19:14:19.410Z,53.90
2022-12-25T19:19:23.377Z,55.30
2022-12-25T19:24:26.679Z,64.10
2022-12-25T19:29:30.485Z,45.40
2022-12-25T19:34:33.721Z,51.00
2022-12-25T19:39:37.075Z,53.50
2022-12-25T19:44:40.342Z,55.10
2022-12-25T19:49:44.010Z,62.60
2022-12-25T19:54:52.551Z,49.80
2022-12-25T19:59:55.733Z,51.10
2022-12-25T20:04:58.853Z,45.80
2022-12-25T20:10:04.006Z,44.40
2022-12-25T20:15:07.928Z,49.00
2022-12-25T20:20:11.594Z,50.60
2022-12-25T20:25:14.936Z,44.10
2022-12-25T20:30:18.193Z,46.10
2022-12-25T20:35:21.350Z,48.60
2022-12-25T20:40:24.616Z,59.10
2022-12-25T20:45:27.835Z,49.40
2022-12-25T20:50:30.971Z,55.00
2022-12-25T20:55:34.539Z,50.10
2022-12-25T21:00:42.709Z,47.40
2022-12-25T21:05:56.659Z,49.80
2022-12-25T21:11:01.121Z,40.30
2022-12-25T21:16:06.635Z,42.50
2022-12-25T21:21:10.499Z,42.90
2022-12-25T21:26:19.156Z,45.10
2022-12-25T21:31:22.575Z,45.20
2022-12-25T21:36:29.506Z,42.20
2022-12-25T21:41:34.992Z,44.40
2022-12-25T21:46:38.189Z,49.60
2022-12-25T21:51:59.812Z,45.80
2022-12-25T21:57:03.396Z,43.40
2022-12-25T22:02:11.805Z,45.70
2022-12-25T22:07:18.294Z,45.90
2022-12-25T22:12:40.894Z,50.00
2022-12-25T22:18:02.792Z,43.40
2022-12-25T22:23:06.068Z,48.40
2022-12-25T22:28:09.404Z,50.50
2022-12-25T22:33:13.545Z,47.10
2022-12-25T22:38:16.726Z,45.80
2022-12-25T22:43:19.942Z,45.50
2022-12-25T22:48:23.110Z,46.20
2022-12-25T22:53:26.305Z,48.40
2022-12-25T22:58:29.413Z,48.10
2022-12-25T23:03:32.641Z,45.40
2022-12-25T23:08:35.914Z,40.10
2022-12-25T23:13:57.794Z,40.00
2022-12-25T23:19:20.152Z,41.20
2022-12-25T23:24:42.156Z,39.90
2022-12-25T23:29:45.384Z,42.80
2022-12-25T23:34:49.520Z,41.60
2022-12-25T23:39:52.740Z,41.90
2022-12-25T23:44:55.943Z,42.00
2022-12-25T23:49:59.067Z,38.30
2022-12-25T23:55:02.242Z,42.30
